sensor_id;sensor_type;location;lat;lon;timestamp;temperature;humidity
61912;DHT22;49973;52.084;5.412;2023-07-13T00:01:15;17.90;99.90
61912;DHT22;49973;52.084;5.412;2023-07-13T00:03:43;17.90;99.90
61912;DHT22;49973;52.084;5.412;2023-07-13T00:06:12;17.80;99.90
61912;DHT22;49973;52.084;5.412;2023-07-13T00:08:42;17.80;99.90
61912;DHT22;49973;52.084;5.412;2023-07-13T00:11:11;17.80;99.90
61912;DHT22;49973;52.084;5.412;2023-07-13T00:13:40;17.80;99.90
61912;DHT22;49973;52.084;5.412;2023-07-13T00:16:10;17.80;99.90
61912;DHT22;49973;52.084;5.412;2023-07-13T00:18:41;17.70;99.90
61912;DHT22;49973;52.084;5.412;2023-07-13T00:21:10;17.70;99.90
61912;DHT22;49973;52.084;5.412;2023-07-13T00:23:41;17.60;99.90
61912;DHT22;49973;52.084;5.412;2023-07-13T00:26:11;17.60;99.90
61912;DHT22;49973;52.084;5.412;2023-07-13T00:28:41;17.60;99.90
61912;DHT22;49973;52.084;5.412;2023-07-13T00:31:11;17.50;99.90
61912;DHT22;49973;52.084;5.412;2023-07-13T00:33:42;17.50;99.90
61912;DHT22;49973;52.084;5.412;2023-07-13T00:36:11;17.40;99.90
61912;DHT22;49973;52.084;5.412;2023-07-13T00:38:41;17.50;99.90
61912;DHT22;49973;52.084;5.412;2023-07-13T00:41:10;17.40;99.90
61912;DHT22;49973;52.084;5.412;2023-07-13T00:43:40;17.40;99.90
61912;DHT22;49973;52.084;5.412;2023-07-13T00:46:28;17.40;99.90
61912;DHT22;49973;52.084;5.412;2023-07-13T00:49:01;17.30;99.90
61912;DHT22;49973;52.084;5.412;2023-07-13T00:51:34;17.30;99.90
61912;DHT22;49973;52.084;5.412;2023-07-13T00:54:08;17.20;99.90
61912;DHT22;49973;52.084;5.412;2023-07-13T00:56:39;17.30;99.90
61912;DHT22;49973;52.084;5.412;2023-07-13T00:59:10;17.10;99.90
61912;DHT22;49973;52.084;5.412;2023-07-13T01:01:40;17.10;99.90
61912;DHT22;49973;52.084;5.412;2023-07-13T01:04:11;17.10;99.90
61912;DHT22;49973;52.084;5.412;2023-07-13T01:06:41;17.20;99.90
61912;DHT22;49973;52.084;5.412;2023-07-13T01:09:14;17.00;99.90
61912;DHT22;49973;52.084;5.412;2023-07-13T01:11:45;17.00;99.90
61912;DHT22;49973;52.084;5.412;2023-07-13T01:14:14;16.90;99.90
61912;DHT22;49973;52.084;5.412;2023-07-13T01:16:45;16.90;99.90
61912;DHT22;49973;52.084;5.412;2023-07-13T01:19:33;16.90;99.90
61912;DHT22;49973;52.084;5.412;2023-07-13T01:22:07;16.90;99.90
61912;DHT22;49973;52.084;5.412;2023-07-13T01:24:37;16.80;99.90
61912;DHT22;49973;52.084;5.412;2023-07-13T01:27:07;16.80;99.90
61912;DHT22;49973;52.084;5.412;2023-07-13T01:29:37;16.80;99.90
61912;DHT22;49973;52.084;5.412;2023-07-13T01:32:11;16.70;99.90
61912;DHT22;49973;52.084;5.412;2023-07-13T01:34:40;16.70;99.90
61912;DHT22;49973;52.084;5.412;2023-07-13T01:37:12;16.60;99.90
61912;DHT22;49973;52.084;5.412;2023-07-13T01:39:40;16.60;99.90
61912;DHT22;49973;52.084;5.412;2023-07-13T01:42:09;16.60;99.90
61912;DHT22;49973;52.084;5.412;2023-07-13T01:44:38;16.60;99.90
61912;DHT22;49973;52.084;5.412;2023-07-13T01:47:07;16.50;99.90
61912;DHT22;49973;52.084;5.412;2023-07-13T01:49:36;16.50;99.90
61912;DHT22;49973;52.084;5.412;2023-07-13T01:52:06;16.50;99.90
61912;DHT22;49973;52.084;5.412;2023-07-13T01:54:36;16.40;99.90
61912;DHT22;49973;52.084;5.412;2023-07-13T01:57:05;16.50;99.90
61912;DHT22;49973;52.084;5.412;2023-07-13T01:59:34;16.40;99.90
61912;DHT22;49973;52.084;5.412;2023-07-13T02:02:02;16.40;99.90
61912;DHT22;49973;52.084;5.412;2023-07-13T02:04:31;16.40;99.90
61912;DHT22;49973;52.084;5.412;2023-07-13T02:07:00;16.40;99.90
61912;DHT22;49973;52.084;5.412;2023-07-13T02:09:29;16.30;99.90
61912;DHT22;49973;52.084;5.412;2023-07-13T02:12:00;16.30;99.90
61912;DHT22;49973;52.084;5.412;2023-07-13T02:14:33;16.30;99.90
61912;DHT22;49973;52.084;5.412;2023-07-13T02:17:02;16.20;99.90
61912;DHT22;49973;52.084;5.412;2023-07-13T02:19:31;16.20;99.90
61912;DHT22;49973;52.084;5.412;2023-07-13T02:21:59;16.20;99.90
61912;DHT22;49973;52.084;5.412;2023-07-13T02:24:28;16.20;99.90
61912;DHT22;49973;52.084;5.412;2023-07-13T02:26:57;16.10;99.90
61912;DHT22;49973;52.084;5.412;2023-07-13T02:29:27;16.10;99.90
61912;DHT22;49973;52.084;5.412;2023-07-13T02:31:56;16.10;99.90
61912;DHT22;49973;52.084;5.412;2023-07-13T02:34:24;16.10;99.90
61912;DHT22;49973;52.084;5.412;2023-07-13T02:36:53;16.00;99.90
61912;DHT22;49973;52.084;5.412;2023-07-13T02:39:22;16.10;99.90
61912;DHT22;49973;52.084;5.412;2023-07-13T02:41:50;16.00;99.90
61912;DHT22;49973;52.084;5.412;2023-07-13T02:44:19;15.90;99.90
61912;DHT22;49973;52.084;5.412;2023-07-13T02:46:49;16.00;99.90
61912;DHT22;49973;52.084;5.412;2023-07-13T02:49:17;15.90;99.90
61912;DHT22;49973;52.084;5.412;2023-07-13T02:51:46;16.00;99.90
61912;DHT22;49973;52.084;5.412;2023-07-13T02:54:14;15.90;99.90
61912;DHT22;49973;52.084;5.412;2023-07-13T02:56:43;15.90;99.90
61912;DHT22;49973;52.084;5.412;2023-07-13T02:59:12;15.90;99.90
61912;DHT22;49973;52.084;5.412;2023-07-13T03:01:40;15.80;99.90
61912;DHT22;49973;52.084;5.412;2023-07-13T03:04:10;15.80;99.90
61912;DHT22;49973;52.084;5.412;2023-07-13T03:06:40;15.80;99.90
61912;DHT22;49973;52.084;5.412;2023-07-13T03:09:09;15.80;99.90
61912;DHT22;49973;52.084;5.412;2023-07-13T03:11:44;15.80;99.90
61912;DHT22;49973;52.084;5.412;2023-07-13T03:14:27;15.80;99.90
61912;DHT22;49973;52.084;5.412;2023-07-13T03:16:56;15.70;99.90
61912;DHT22;49973;52.084;5.412;2023-07-13T03:19:30;15.70;99.90
61912;DHT22;49973;52.084;5.412;2023-07-13T03:21:58;15.80;99.90
61912;DHT22;49973;52.084;5.412;2023-07-13T03:24:27;15.70;99.90
61912;DHT22;49973;52.084;5.412;2023-07-13T03:26:57;15.70;99.90
61912;DHT22;49973;52.084;5.412;2023-07-13T03:29:26;15.70;99.90
61912;DHT22;49973;52.084;5.412;2023-07-13T03:31:55;15.70;99.90
61912;DHT22;49973;52.084;5.412;2023-07-13T03:34:24;15.70;99.90
61912;DHT22;49973;52.084;5.412;2023-07-13T03:36:55;15.70;99.90
61912;DHT22;49973;52.084;5.412;2023-07-13T03:39:24;15.80;99.90
61912;DHT22;49973;52.084;5.412;2023-07-13T03:41:55;15.70;99.90
61912;DHT22;49973;52.084;5.412;2023-07-13T03:44:24;15.70;99.90
61912;DHT22;49973;52.084;5.412;2023-07-13T03:46:55;15.70;99.90
61912;DHT22;49973;52.084;5.412;2023-07-13T03:49:24;15.70;99.90
61912;DHT22;49973;52.084;5.412;2023-07-13T03:51:54;15.60;99.90
61912;DHT22;49973;52.084;5.412;2023-07-13T03:54:23;15.70;99.90
61912;DHT22;49973;52.084;5.412;2023-07-13T03:56:52;15.70;99.90
61912;DHT22;49973;52.084;5.412;2023-07-13T03:59:22;15.70;99.90
61912;DHT22;49973;52.084;5.412;2023-07-13T04:01:51;15.70;99.90
61912;DHT22;49973;52.084;5.412;2023-07-13T04:04:20;15.70;99.90
61912;DHT22;49973;52.084;5.412;2023-07-13T04:06:49;15.70;99.90
61912;DHT22;49973;52.084;5.412;2023-07-13T04:09:21;15.60;99.90
61912;DHT22;49973;52.084;5.412;2023-07-13T04:11:50;15.70;99.90
61912;DHT22;49973;52.084;5.412;2023-07-13T04:14:19;15.70;99.90
61912;DHT22;49973;52.084;5.412;2023-07-13T04:16:48;15.70;99.90
61912;DHT22;49973;52.084;5.412;2023-07-13T04:19:17;15.70;99.90
61912;DHT22;49973;52.084;5.412;2023-07-13T04:21:46;15.70;99.90
61912;DHT22;49973;52.084;5.412;2023-07-13T04:24:14;15.80;99.90
61912;DHT22;49973;52.084;5.412;2023-07-13T04:26:44;15.80;99.90
61912;DHT22;49973;52.084;5.412;2023-07-13T04:29:13;15.80;99.90
61912;DHT22;49973;52.084;5.412;2023-07-13T04:31:42;15.90;99.90
61912;DHT22;49973;52.084;5.412;2023-07-13T04:34:11;16.00;99.90
61912;DHT22;49973;52.084;5.412;2023-07-13T04:36:39;16.10;99.90
61912;DHT22;49973;52.084;5.412;2023-07-13T04:39:08;16.00;99.90
61912;DHT22;49973;52.084;5.412;2023-07-13T04:41:37;16.20;99.90
61912;DHT22;49973;52.084;5.412;2023-07-13T04:44:07;16.10;99.90
61912;DHT22;49973;52.084;5.412;2023-07-13T04:46:35;16.20;99.90
61912;DHT22;49973;52.084;5.412;2023-07-13T04:49:04;16.20;99.90
61912;DHT22;49973;52.084;5.412;2023-07-13T04:51:33;16.30;99.90
61912;DHT22;49973;52.084;5.412;2023-07-13T04:54:02;16.50;99.90
61912;DHT22;49973;52.084;5.412;2023-07-13T04:56:32;16.30;99.90
61912;DHT22;49973;52.084;5.412;2023-07-13T04:59:01;16.40;99.90
61912;DHT22;49973;52.084;5.412;2023-07-13T05:01:30;16.40;99.90
61912;DHT22;49973;52.084;5.412;2023-07-13T05:03:59;16.50;99.90
61912;DHT22;49973;52.084;5.412;2023-07-13T05:06:28;16.60;99.90
61912;DHT22;49973;52.084;5.412;2023-07-13T05:08:57;16.60;99.90
61912;DHT22;49973;52.084;5.412;2023-07-13T05:11:26;16.70;99.90
61912;DHT22;49973;52.084;5.412;2023-07-13T05:13:55;16.80;99.90
61912;DHT22;49973;52.084;5.412;2023-07-13T05:16:24;16.80;99.90
61912;DHT22;49973;52.084;5.412;2023-07-13T05:18:54;16.90;99.90
61912;DHT22;49973;52.084;5.412;2023-07-13T05:21:22;17.00;99.90
61912;DHT22;49973;52.084;5.412;2023-07-13T05:23:51;17.00;99.90
61912;DHT22;49973;52.084;5.412;2023-07-13T05:26:20;17.10;99.90
61912;DHT22;49973;52.084;5.412;2023-07-13T05:28:49;17.20;99.90
61912;DHT22;49973;52.084;5.412;2023-07-13T05:31:17;17.30;99.90
61912;DHT22;49973;52.084;5.412;2023-07-13T05:33:46;17.30;99.90
61912;DHT22;49973;52.084;5.412;2023-07-13T05:36:16;17.40;99.90
61912;DHT22;49973;52.084;5.412;2023-07-13T05:38:45;17.50;99.90
61912;DHT22;49973;52.084;5.412;2023-07-13T05:41:13;17.50;99.90
61912;DHT22;49973;52.084;5.412;2023-07-13T05:43:42;17.60;99.90
61912;DHT22;49973;52.084;5.412;2023-07-13T05:46:11;17.60;99.90
61912;DHT22;49973;52.084;5.412;2023-07-13T05:48:39;17.60;99.90
61912;DHT22;49973;52.084;5.412;2023-07-13T05:51:08;17.70;99.90
61912;DHT22;49973;52.084;5.412;2023-07-13T05:53:39;17.70;99.90
61912;DHT22;49973;52.084;5.412;2023-07-13T05:56:07;17.80;99.90
61912;DHT22;49973;52.084;5.412;2023-07-13T05:58:36;17.80;99.90
61912;DHT22;49973;52.084;5.412;2023-07-13T06:01:08;17.90;99.90
61912;DHT22;49973;52.084;5.412;2023-07-13T06:03:38;17.90;99.90
61912;DHT22;49973;52.084;5.412;2023-07-13T06:06:09;18.00;99.90
61912;DHT22;49973;52.084;5.412;2023-07-13T06:08:39;18.00;99.90
61912;DHT22;49973;52.084;5.412;2023-07-13T06:11:13;18.10;99.90
61912;DHT22;49973;52.084;5.412;2023-07-13T06:13:42;18.20;99.90
61912;DHT22;49973;52.084;5.412;2023-07-13T06:16:11;18.40;99.90
61912;DHT22;49973;52.084;5.412;2023-07-13T06:18:41;18.70;99.90
61912;DHT22;49973;52.084;5.412;2023-07-13T06:21:11;18.90;99.90
61912;DHT22;49973;52.084;5.412;2023-07-13T06:23:42;19.00;99.90
61912;DHT22;49973;52.084;5.412;2023-07-13T06:26:11;19.20;99.90
61912;DHT22;49973;52.084;5.412;2023-07-13T06:28:40;19.40;99.90
61912;DHT22;49973;52.084;5.412;2023-07-13T06:31:10;19.60;99.90
61912;DHT22;49973;52.084;5.412;2023-07-13T06:33:40;19.70;99.90
61912;DHT22;49973;52.084;5.412;2023-07-13T06:36:09;19.80;99.90
61912;DHT22;49973;52.084;5.412;2023-07-13T06:38:38;19.80;99.90
61912;DHT22;49973;52.084;5.412;2023-07-13T06:41:09;19.80;99.90
61912;DHT22;49973;52.084;5.412;2023-07-13T06:43:38;19.80;99.90
61912;DHT22;49973;52.084;5.412;2023-07-13T06:46:07;19.80;99.90
61912;DHT22;49973;52.084;5.412;2023-07-13T06:48:35;19.80;99.90
61912;DHT22;49973;52.084;5.412;2023-07-13T06:51:04;19.80;99.90
61912;DHT22;49973;52.084;5.412;2023-07-13T06:53:32;19.80;99.90
61912;DHT22;49973;52.084;5.412;2023-07-13T06:56:01;19.80;99.90
61912;DHT22;49973;52.084;5.412;2023-07-13T06:58:33;19.90;99.90
61912;DHT22;49973;52.084;5.412;2023-07-13T07:01:02;20.00;99.90
61912;DHT22;49973;52.084;5.412;2023-07-13T07:03:32;20.10;99.90
61912;DHT22;49973;52.084;5.412;2023-07-13T07:06:01;20.00;99.90
61912;DHT22;49973;52.084;5.412;2023-07-13T07:08:30;20.00;99.90
61912;DHT22;49973;52.084;5.412;2023-07-13T07:10:59;20.00;99.90
61912;DHT22;49973;52.084;5.412;2023-07-13T07:13:27;20.00;99.90
61912;DHT22;49973;52.084;5.412;2023-07-13T07:15:59;20.00;99.90
61912;DHT22;49973;52.084;5.412;2023-07-13T07:18:28;20.00;99.90
61912;DHT22;49973;52.084;5.412;2023-07-13T07:20:56;20.00;99.90
61912;DHT22;49973;52.084;5.412;2023-07-13T07:23:25;20.00;99.90
61912;DHT22;49973;52.084;5.412;2023-07-13T07:25:54;20.00;99.90
61912;DHT22;49973;52.084;5.412;2023-07-13T07:28:22;20.00;99.90
61912;DHT22;49973;52.084;5.412;2023-07-13T07:30:55;19.90;99.90
61912;DHT22;49973;52.084;5.412;2023-07-13T07:33:29;19.90;99.90
61912;DHT22;49973;52.084;5.412;2023-07-13T07:35:57;19.90;99.90
61912;DHT22;49973;52.084;5.412;2023-07-13T07:38:29;20.00;99.90
61912;DHT22;49973;52.084;5.412;2023-07-13T07:40:57;20.00;99.90
61912;DHT22;49973;52.084;5.412;2023-07-13T07:43:29;20.00;99.90
61912;DHT22;49973;52.084;5.412;2023-07-13T07:45:58;20.00;99.90
61912;DHT22;49973;52.084;5.412;2023-07-13T07:48:31;20.00;99.90
61912;DHT22;49973;52.084;5.412;2023-07-13T07:51:00;20.10;99.90
61912;DHT22;49973;52.084;5.412;2023-07-13T07:53:28;20.20;99.90
61912;DHT22;49973;52.084;5.412;2023-07-13T07:56:00;20.30;99.90
61912;DHT22;49973;52.084;5.412;2023-07-13T07:58:49;20.30;99.90
61912;DHT22;49973;52.084;5.412;2023-07-13T08:01:20;20.30;99.90
61912;DHT22;49973;52.084;5.412;2023-07-13T08:03:53;20.20;99.90
61912;DHT22;49973;52.084;5.412;2023-07-13T08:06:25;20.30;99.90
61912;DHT22;49973;52.084;5.412;2023-07-13T08:08:56;20.40;99.90
61912;DHT22;49973;52.084;5.412;2023-07-13T08:11:25;20.60;99.90
61912;DHT22;49973;52.084;5.412;2023-07-13T08:13:57;20.60;99.90
61912;DHT22;49973;52.084;5.412;2023-07-13T08:16:26;20.70;99.90
61912;DHT22;49973;52.084;5.412;2023-07-13T08:18:56;21.00;99.90
61912;DHT22;49973;52.084;5.412;2023-07-13T08:21:25;21.40;99.90
61912;DHT22;49973;52.084;5.412;2023-07-13T08:23:53;21.70;99.90
61912;DHT22;49973;52.084;5.412;2023-07-13T08:26:22;22.10;99.90
61912;DHT22;49973;52.084;5.412;2023-07-13T08:28:51;22.30;99.90
61912;DHT22;49973;52.084;5.412;2023-07-13T08:31:22;22.40;99.90
61912;DHT22;49973;52.084;5.412;2023-07-13T08:33:50;22.30;99.90
61912;DHT22;49973;52.084;5.412;2023-07-13T08:36:20;22.30;99.90
61912;DHT22;49973;52.084;5.412;2023-07-13T08:38:49;22.20;99.90
61912;DHT22;49973;52.084;5.412;2023-07-13T08:41:18;22.20;99.90
61912;DHT22;49973;52.084;5.412;2023-07-13T08:43:50;22.10;99.90
61912;DHT22;49973;52.084;5.412;2023-07-13T08:46:24;22.00;99.90
61912;DHT22;49973;52.084;5.412;2023-07-13T08:48:58;21.90;99.90
61912;DHT22;49973;52.084;5.412;2023-07-13T08:51:35;21.70;99.90
61912;DHT22;49973;52.084;5.412;2023-07-13T08:54:15;21.70;99.90
61912;DHT22;49973;52.084;5.412;2023-07-13T08:56:46;21.60;99.90
61912;DHT22;49973;52.084;5.412;2023-07-13T08:59:18;21.50;99.90
61912;DHT22;49973;52.084;5.412;2023-07-13T09:02:14;21.30;99.90
61912;DHT22;49973;52.084;5.412;2023-07-13T09:04:49;21.10;99.90
61912;DHT22;49973;52.084;5.412;2023-07-13T09:07:27;20.90;99.90
61912;DHT22;49973;52.084;5.412;2023-07-13T09:10:05;20.70;99.90
61912;DHT22;49973;52.084;5.412;2023-07-13T09:12:48;20.60;99.90
61912;DHT22;49973;52.084;5.412;2023-07-13T09:15:26;20.60;99.90
61912;DHT22;49973;52.084;5.412;2023-07-13T09:18:02;20.70;99.90
61912;DHT22;49973;52.084;5.412;2023-07-13T09:20:35;20.90;99.90
61912;DHT22;49973;52.084;5.412;2023-07-13T09:23:11;21.20;99.90
61912;DHT22;49973;52.084;5.412;2023-07-13T09:25:42;21.60;99.90
61912;DHT22;49973;52.084;5.412;2023-07-13T09:28:18;21.80;99.90
61912;DHT22;49973;52.084;5.412;2023-07-13T09:30:51;21.90;99.90
61912;DHT22;49973;52.084;5.412;2023-07-13T09:33:22;22.00;99.90
61912;DHT22;49973;52.084;5.412;2023-07-13T09:35:51;22.20;99.90
61912;DHT22;49973;52.084;5.412;2023-07-13T09:38:23;22.30;99.90
61912;DHT22;49973;52.084;5.412;2023-07-13T09:41:00;22.40;99.90
61912;DHT22;49973;52.084;5.412;2023-07-13T09:43:29;22.50;99.90
61912;DHT22;49973;52.084;5.412;2023-07-13T09:45:59;22.60;99.90
61912;DHT22;49973;52.084;5.412;2023-07-13T09:48:34;22.80;99.90
61912;DHT22;49973;52.084;5.412;2023-07-13T09:51:12;22.90;99.90
61912;DHT22;49973;52.084;5.412;2023-07-13T09:53:43;22.90;99.90
61912;DHT22;49973;52.084;5.412;2023-07-13T09:56:20;22.80;99.90
61912;DHT22;49973;52.084;5.412;2023-07-13T09:58:49;22.60;99.90
61912;DHT22;49973;52.084;5.412;2023-07-13T10:01:32;22.40;99.90
61912;DHT22;49973;52.084;5.412;2023-07-13T10:04:01;22.20;99.90
61912;DHT22;49973;52.084;5.412;2023-07-13T10:06:30;21.90;99.90
61912;DHT22;49973;52.084;5.412;2023-07-13T10:09:00;21.60;99.90
61912;DHT22;49973;52.084;5.412;2023-07-13T10:11:30;21.40;99.90
61912;DHT22;49973;52.084;5.412;2023-07-13T10:14:02;21.10;99.90
61912;DHT22;49973;52.084;5.412;2023-07-13T10:16:33;20.90;99.90
61912;DHT22;49973;52.084;5.412;2023-07-13T10:19:06;20.70;99.90
61912;DHT22;49973;52.084;5.412;2023-07-13T10:21:49;20.60;99.90
61912;DHT22;49973;52.084;5.412;2023-07-13T10:24:23;20.80;99.90
61912;DHT22;49973;52.084;5.412;2023-07-13T10:26:56;21.20;99.90
61912;DHT22;49973;52.084;5.412;2023-07-13T10:29:35;21.70;99.90
61912;DHT22;49973;52.084;5.412;2023-07-13T10:32:09;22.20;99.90
61912;DHT22;49973;52.084;5.412;2023-07-13T10:34:45;22.60;99.90
61912;DHT22;49973;52.084;5.412;2023-07-13T10:37:18;23.00;99.90
61912;DHT22;49973;52.084;5.412;2023-07-13T10:39:51;23.20;99.90
61912;DHT22;49973;52.084;5.412;2023-07-13T10:42:26;23.20;99.90
61912;DHT22;49973;52.084;5.412;2023-07-13T10:44:55;23.00;99.90
61912;DHT22;49973;52.084;5.412;2023-07-13T10:47:24;22.70;99.90
61912;DHT22;49973;52.084;5.412;2023-07-13T10:49:58;22.50;99.90
61912;DHT22;49973;52.084;5.412;2023-07-13T10:52:42;22.40;99.90
61912;DHT22;49973;52.084;5.412;2023-07-13T10:55:31;22.40;99.90
61912;DHT22;49973;52.084;5.412;2023-07-13T10:58:14;22.80;99.90
61912;DHT22;49973;52.084;5.412;2023-07-13T11:00:47;23.20;99.90
61912;DHT22;49973;52.084;5.412;2023-07-13T11:03:19;23.50;99.90
61912;DHT22;49973;52.084;5.412;2023-07-13T11:05:51;23.70;99.90
61912;DHT22;49973;52.084;5.412;2023-07-13T11:08:36;23.90;99.90
61912;DHT22;49973;52.084;5.412;2023-07-13T11:11:35;24.20;99.90
61912;DHT22;49973;52.084;5.412;2023-07-13T11:14:26;24.50;99.90
61912;DHT22;49973;52.084;5.412;2023-07-13T11:16:55;24.70;99.90
61912;DHT22;49973;52.084;5.412;2023-07-13T11:19:27;24.80;99.90
61912;DHT22;49973;52.084;5.412;2023-07-13T11:22:09;24.90;99.90
61912;DHT22;49973;52.084;5.412;2023-07-13T11:24:56;25.10;99.90
61912;DHT22;49973;52.084;5.412;2023-07-13T11:27:40;25.20;99.90
61912;DHT22;49973;52.084;5.412;2023-07-13T11:30:31;25.20;99.90
61912;DHT22;49973;52.084;5.412;2023-07-13T11:33:09;25.20;99.90
61912;DHT22;49973;52.084;5.412;2023-07-13T11:35:56;25.20;99.90
61912;DHT22;49973;52.084;5.412;2023-07-13T11:38:33;25.40;99.90
61912;DHT22;49973;52.084;5.412;2023-07-13T11:41:05;25.50;99.90
61912;DHT22;49973;52.084;5.412;2023-07-13T11:43:36;25.40;99.90
61912;DHT22;49973;52.084;5.412;2023-07-13T11:46:21;25.30;99.90
61912;DHT22;49973;52.084;5.412;2023-07-13T11:48:51;25.20;99.90
61912;DHT22;49973;52.084;5.412;2023-07-13T11:51:22;24.80;99.90
61912;DHT22;49973;52.084;5.412;2023-07-13T11:53:54;24.20;99.90
61912;DHT22;49973;52.084;5.412;2023-07-13T11:56:25;23.20;99.90
61912;DHT22;49973;52.084;5.412;2023-07-13T11:58:57;22.20;99.90
61912;DHT22;49973;52.084;5.412;2023-07-13T12:01:29;21.40;99.90
61912;DHT22;49973;52.084;5.412;2023-07-13T12:04:03;20.80;99.90
61912;DHT22;49973;52.084;5.412;2023-07-13T12:06:35;20.20;99.90
61912;DHT22;49973;52.084;5.412;2023-07-13T12:09:11;19.80;99.90
61912;DHT22;49973;52.084;5.412;2023-07-13T12:11:42;19.60;99.90
61912;DHT22;49973;52.084;5.412;2023-07-13T12:14:16;19.50;99.90
61912;DHT22;49973;52.084;5.412;2023-07-13T12:16:46;19.50;99.90
61912;DHT22;49973;52.084;5.412;2023-07-13T12:19:20;19.50;99.90
61912;DHT22;49973;52.084;5.412;2023-07-13T12:21:52;19.60;99.90
61912;DHT22;49973;52.084;5.412;2023-07-13T12:24:22;19.70;99.90
61912;DHT22;49973;52.084;5.412;2023-07-13T12:26:52;20.00;99.90
61912;DHT22;49973;52.084;5.412;2023-07-13T12:29:23;20.30;99.90
61912;DHT22;49973;52.084;5.412;2023-07-13T12:31:52;20.50;99.90
61912;DHT22;49973;52.084;5.412;2023-07-13T12:34:24;20.80;99.90
61912;DHT22;49973;52.084;5.412;2023-07-13T12:36:54;20.80;99.90
61912;DHT22;49973;52.084;5.412;2023-07-13T12:39:34;20.90;99.90
61912;DHT22;49973;52.084;5.412;2023-07-13T12:42:18;20.80;99.90
61912;DHT22;49973;52.084;5.412;2023-07-13T12:44:50;20.80;99.90
61912;DHT22;49973;52.084;5.412;2023-07-13T12:47:21;20.80;99.90
61912;DHT22;49973;52.084;5.412;2023-07-13T12:49:54;20.90;99.90
61912;DHT22;49973;52.084;5.412;2023-07-13T12:52:27;21.10;99.90
61912;DHT22;49973;52.084;5.412;2023-07-13T12:54:59;21.30;99.90
61912;DHT22;49973;52.084;5.412;2023-07-13T12:57:31;21.50;99.90
61912;DHT22;49973;52.084;5.412;2023-07-13T13:00:03;21.70;99.90
61912;DHT22;49973;52.084;5.412;2023-07-13T13:02:34;21.80;99.90
61912;DHT22;49973;52.084;5.412;2023-07-13T13:05:04;22.00;99.90
61912;DHT22;49973;52.084;5.412;2023-07-13T13:07:34;22.10;99.90
61912;DHT22;49973;52.084;5.412;2023-07-13T13:10:11;22.30;99.90
61912;DHT22;49973;52.084;5.412;2023-07-13T13:12:44;22.40;99.90
61912;DHT22;49973;52.084;5.412;2023-07-13T13:15:15;22.40;99.90
61912;DHT22;49973;52.084;5.412;2023-07-13T13:17:47;22.40;99.90
61912;DHT22;49973;52.084;5.412;2023-07-13T13:20:19;22.40;99.90
61912;DHT22;49973;52.084;5.412;2023-07-13T13:22:48;22.20;99.90
61912;DHT22;49973;52.084;5.412;2023-07-13T13:25:18;22.00;99.90
61912;DHT22;49973;52.084;5.412;2023-07-13T13:27:47;21.90;99.90
61912;DHT22;49973;52.084;5.412;2023-07-13T13:30:18;21.70;99.90
61912;DHT22;49973;52.084;5.412;2023-07-13T13:32:49;21.60;99.90
61912;DHT22;49973;52.084;5.412;2023-07-13T13:35:19;21.50;99.90
61912;DHT22;49973;52.084;5.412;2023-07-13T13:37:50;21.30;99.90
61912;DHT22;49973;52.084;5.412;2023-07-13T13:40:21;21.10;99.90
61912;DHT22;49973;52.084;5.412;2023-07-13T13:42:50;21.10;99.90
61912;DHT22;49973;52.084;5.412;2023-07-13T13:45:22;21.00;99.90
61912;DHT22;49973;52.084;5.412;2023-07-13T13:47:51;20.90;99.90
61912;DHT22;49973;52.084;5.412;2023-07-13T13:50:22;21.00;99.90
61912;DHT22;49973;52.084;5.412;2023-07-13T13:52:52;21.10;99.90
61912;DHT22;49973;52.084;5.412;2023-07-13T13:55:21;21.10;99.90
61912;DHT22;49973;52.084;5.412;2023-07-13T13:57:51;21.30;99.90
61912;DHT22;49973;52.084;5.412;2023-07-13T14:00:23;21.50;99.90
61912;DHT22;49973;52.084;5.412;2023-07-13T14:02:52;21.60;99.90
61912;DHT22;49973;52.084;5.412;2023-07-13T14:05:25;21.70;99.90
61912;DHT22;49973;52.084;5.412;2023-07-13T14:07:54;21.80;99.90
61912;DHT22;49973;52.084;5.412;2023-07-13T14:10:24;21.90;99.90
61912;DHT22;49973;52.084;5.412;2023-07-13T14:12:55;21.90;99.90
61912;DHT22;49973;52.084;5.412;2023-07-13T14:15:27;22.10;99.90
61912;DHT22;49973;52.084;5.412;2023-07-13T14:17:58;22.20;99.90
61912;DHT22;49973;52.084;5.412;2023-07-13T14:20:28;22.20;99.90
61912;DHT22;49973;52.084;5.412;2023-07-13T14:22:59;22.20;99.90
61912;DHT22;49973;52.084;5.412;2023-07-13T14:25:28;22.30;99.90
61912;DHT22;49973;52.084;5.412;2023-07-13T14:27:58;22.30;99.90
61912;DHT22;49973;52.084;5.412;2023-07-13T14:30:33;22.30;99.90
61912;DHT22;49973;52.084;5.412;2023-07-13T14:33:08;22.30;99.90
61912;DHT22;49973;52.084;5.412;2023-07-13T14:35:38;22.20;99.90
61912;DHT22;49973;52.084;5.412;2023-07-13T14:38:10;22.20;99.90
61912;DHT22;49973;52.084;5.412;2023-07-13T14:40:40;22.10;99.90
61912;DHT22;49973;52.084;5.412;2023-07-13T14:43:13;22.10;99.90
61912;DHT22;49973;52.084;5.412;2023-07-13T14:45:47;22.10;99.90
61912;DHT22;49973;52.084;5.412;2023-07-13T14:48:20;22.20;99.90
61912;DHT22;49973;52.084;5.412;2023-07-13T14:50:53;22.30;99.90
61912;DHT22;49973;52.084;5.412;2023-07-13T14:53:24;22.40;99.90
61912;DHT22;49973;52.084;5.412;2023-07-13T14:55:53;22.50;99.90
61912;DHT22;49973;52.084;5.412;2023-07-13T14:58:26;22.50;99.90
61912;DHT22;49973;52.084;5.412;2023-07-13T15:00:59;22.60;99.90
61912;DHT22;49973;52.084;5.412;2023-07-13T15:03:29;22.70;99.90
61912;DHT22;49973;52.084;5.412;2023-07-13T15:05:58;22.70;99.90
61912;DHT22;49973;52.084;5.412;2023-07-13T15:08:30;22.60;99.90
61912;DHT22;49973;52.084;5.412;2023-07-13T15:11:00;22.60;99.90
61912;DHT22;49973;52.084;5.412;2023-07-13T15:13:29;22.50;99.90
61912;DHT22;49973;52.084;5.412;2023-07-13T15:16:00;22.60;99.90
61912;DHT22;49973;52.084;5.412;2023-07-13T15:18:29;22.60;99.90
61912;DHT22;49973;52.084;5.412;2023-07-13T15:20:58;22.70;99.90
61912;DHT22;49973;52.084;5.412;2023-07-13T15:23:30;22.70;99.90
61912;DHT22;49973;52.084;5.412;2023-07-13T15:25:59;22.70;99.90
61912;DHT22;49973;52.084;5.412;2023-07-13T15:28:28;22.70;99.90
61912;DHT22;49973;52.084;5.412;2023-07-13T15:30:58;22.80;99.90
61912;DHT22;49973;52.084;5.412;2023-07-13T15:33:30;22.90;99.90
61912;DHT22;49973;52.084;5.412;2023-07-13T15:36:01;22.90;99.90
61912;DHT22;49973;52.084;5.412;2023-07-13T15:38:32;22.80;99.90
61912;DHT22;49973;52.084;5.412;2023-07-13T15:41:16;22.90;99.90
61912;DHT22;49973;52.084;5.412;2023-07-13T15:43:46;22.80;99.90
61912;DHT22;49973;52.084;5.412;2023-07-13T15:46:17;22.80;99.90
61912;DHT22;49973;52.084;5.412;2023-07-13T15:48:47;22.70;99.90
61912;DHT22;49973;52.084;5.412;2023-07-13T15:51:24;22.60;99.90
61912;DHT22;49973;52.084;5.412;2023-07-13T15:53:55;22.50;99.90
61912;DHT22;49973;52.084;5.412;2023-07-13T15:56:35;22.40;99.90